Time;durP1;ratioP1;P1;durP2;ratioP2;P2;SDS_P1;SDS_P2;PMS_P1;PMS_P2;Temp;Humidity;BMP_temperature;BMP_pressure;BME280_temperature;BME280_humidity;BME280_pressure;Samples;Min_cycle;Max_cycle;Signal;HPM_P1;HPM_P2
2021/12/05 00:19:41;;;;;;;;;;;;;;;22.13;30.09;94278.38;1032792;28;1681;-75
2021/12/05 00:22:32;;;;;;;;;;;;;;;22.23;29.98;94282.50;1022836;29;1880;-75
2021/12/05 00:23:08;;;;;;;;;;;;;;;22.25;29.62;94285.59;1023964;29;1557;-71
2021/12/05 00:23:58;;;;;;;;;;;;;;;22.26;29.64;94282.63;1019812;29;1229;-74
2021/12/05 00:24:30;;;;;;;;;;;;;;;22.28;29.57;94287.56;1024846;28;1207;-75
2021/12/05 00:25:02;;;;;;;;;;;;;;;22.28;29.68;94291.00;1028150;28;1153;-72
2021/12/05 00:25:33;;;;;;;;;;;;;;;22.29;30.00;94289.91;1024443;29;1471;-72
2021/12/05 00:26:05;;;;;;;;;;;;;;;22.30;29.39;94293.31;1020188;29;1068;-73
2021/12/05 00:26:36;;;;;;;;;;;;;;;22.31;29.49;94295.66;1020198;29;1130;-75
2021/12/05 00:27:14;;;;;;;;;;;;;;;22.30;29.25;94291.44;1022903;28;1040;-73
2021/12/05 00:27:46;;;;;;;;;;;;;;;22.32;29.26;94297.19;1032165;28;1959;-74
2021/12/05 00:31:42;;;;;;;;;;;;;;;22.38;29.44;94301.19;1028374;28;866;-75
2021/12/05 00:47:18;;;;;;;;;;;;;;;22.61;28.03;94313.03;1032143;28;1240;-77
2021/12/05 00:49:33;;;;;;;;;;;;;;;22.63;27.79;94320.66;1027564;28;1333;-75
2021/12/05 00:55:49;;;;;;;;;;;;;;;22.67;27.89;94322.31;1028396;28;1455;-77
2021/12/05 00:58:31;;;;;;;;;;;;;;;22.70;27.66;94320.13;1037160;28;1391;-78
2021/12/05 01:03:07;;;;;;;;;;;;;;;22.72;27.90;94326.66;1023371;29;2199;-75
2021/12/05 01:05:29;;;;;;;;;;;;;;;22.70;27.42;94331.50;1029383;28;1678;-75
2021/12/05 01:11:42;;;;;;;;;;;;;;;22.76;27.49;94335.50;1029784;28;1167;-78
2021/12/05 01:15:04;;;;;;;;;;;;;;;22.75;27.89;94336.56;1025619;28;1122;-77
2021/12/05 01:15:35;;;;;;;;;;;;;;;22.78;27.46;94343.09;1027386;28;1518;-76
2021/12/05 01:16:10;;;;;;;;;;;;;;;22.77;27.74;94338.91;1023774;29;1390;-76
2021/12/05 01:16:41;;;;;;;;;;;;;;;22.79;27.54;94342.00;1021379;29;1846;-77
2021/12/05 01:17:13;;;;;;;;;;;;;;;22.80;27.77;94340.91;1020803;29;1400;-76
2021/12/05 01:18:31;;;;;;;;;;;;;;;22.79;27.51;94339.38;1025342;28;1156;-75
2021/12/05 01:19:02;;;;;;;;;;;;;;;22.80;27.97;94344.31;1027626;28;1615;-77
2021/12/05 01:19:33;;;;;;;;;;;;;;;22.81;27.89;94345.09;1019938;29;1398;-78
2021/12/05 01:20:06;;;;;;;;;;;;;;;22.82;27.59;94346.63;1023919;29;1063;-75
2021/12/05 01:20:38;;;;;;;;;;;;;;;22.82;27.82;94346.63;1024703;28;1443;-77
2021/12/05 01:21:11;;;;;;;;;;;;;;;22.81;27.34;94345.88;1023933;28;1904;-74
2021/12/05 01:21:43;;;;;;;;;;;;;;;22.83;27.61;94348.19;1026400;28;1168;-76
2021/12/05 01:22:16;;;;;;;;;;;;;;;22.85;28.05;94353.94;1028236;28;1161;-76
2021/12/05 01:22:54;;;;;;;;;;;;;;;22.84;27.68;94347.09;1027686;28;1839;-76
2021/12/05 01:24:38;;;;;;;;;;;;;;;22.82;27.35;94346.63;1031930;28;1206;-75
2021/12/05 01:26:20;;;;;;;;;;;;;;;22.81;27.37;94343.25;1035387;28;1275;-73
2021/12/05 01:30:03;;;;;;;;;;;;;;;22.85;28.23;94346.00;1032120;28;1333;-75
2021/12/05 01:31:07;;;;;;;;;;;;;;;22.85;27.95;94348.66;1027000;28;1245;-78
2021/12/05 01:31:13;;;;;;;;;;;;;;;22.85;26.88;94353.94;1019819;29;1322;-76
2021/12/05 01:33:36;;;;;;;;;;;;;;;22.82;27.25;94352.69;1022369;28;1356;-77
2021/12/05 01:36:41;;;;;;;;;;;;;;;22.83;27.24;94353.47;1023681;28;1177;-75
2021/12/05 01:37:11;;;;;;;;;;;;;;;22.80;27.00;94351.47;1023634;28;1287;-73
2021/12/05 01:39:02;;;;;;;;;;;;;;;22.79;28.70;94352.56;1026219;28;1142;-77
2021/12/05 01:39:20;;;;;;;;;;;;;;;22.80;28.35;94359.38;1031749;28;1114;-75
2021/12/05 01:46:18;;;;;;;;;;;;;;;22.78;27.66;94361.56;1015891;29;1399;-77
2021/12/05 01:49:24;;;;;;;;;;;;;;;22.79;27.49;94357.84;1030281;28;1527;-76
2021/12/05 01:51:28;;;;;;;;;;;;;;;22.79;27.66;94369.19;1023089;28;1390;-76
2021/12/05 01:58:45;;;;;;;;;;;;;;;22.79;27.15;94365.78;1023553;28;1820;-76
2021/12/05 02:01:44;;;;;;;;;;;;;;;22.82;28.11;94373.06;1027917;28;1325;-77
2021/12/05 02:33:50;;;;;;;;;;;;;;;22.86;27.25;94368.66;1024458;28;2094;-76
2021/12/05 02:39:01;;;;;;;;;;;;;;;22.83;26.58;94379.91;1028146;28;1435;-75
2021/12/05 02:40:04;;;;;;;;;;;;;;;22.83;26.54;94374.63;1030865;28;1098;-76
2021/12/05 02:41:25;;;;;;;;;;;;;;;22.83;27.36;94379.91;1028207;28;859;-75
2021/12/05 02:41:56;;;;;;;;;;;;;;;22.82;26.93;94373.84;1031285;28;1331;-77
2021/12/05 02:42:35;;;;;;;;;;;;;;;22.81;27.04;94377.59;1026327;28;1820;-75
2021/12/05 02:43:11;;;;;;;;;;;;;;;22.82;26.92;94383.63;1027707;28;1224;-77
2021/12/05 02:43:45;;;;;;;;;;;;;;;22.80;26.50;94381.31;1023072;28;2170;-77
2021/12/05 02:44:25;;;;;;;;;;;;;;;22.79;27.08;94377.13;1027275;28;1838;-78
2021/12/05 02:44:55;;;;;;;;;;;;;;;22.81;27.21;94384.72;1031269;28;1253;-76
2021/12/05 02:45:26;;;;;;;;;;;;;;;22.82;27.55;94388.91;1028028;28;1345;-78
2021/12/05 02:46:00;;;;;;;;;;;;;;;22.83;27.25;94390.47;1020058;29;1040;-76
2021/12/05 02:46:30;;;;;;;;;;;;;;;22.82;26.88;94384.41;1019985;29;1631;-75
2021/12/05 02:47:05;;;;;;;;;;;;;;;22.83;27.13;94382.53;1027865;28;1368;-75
2021/12/05 02:47:35;;;;;;;;;;;;;;;22.83;27.27;94378.03;1024833;28;1520;-77
2021/12/05 02:48:06;;;;;;;;;;;;;;;22.83;26.99;94372.75;1026840;28;1527;-77
2021/12/05 02:48:37;;;;;;;;;;;;;;;22.83;26.70;94380.69;1023858;28;2162;-76
2021/12/05 02:49:11;;;;;;;;;;;;;;;22.81;27.10;94374.16;1021355;28;1267;-78
2021/12/05 02:49:43;;;;;;;;;;;;;;;22.82;27.10;94378.34;1027842;28;1981;-77
2021/12/05 02:50:13;;;;;;;;;;;;;;;22.82;26.93;94381.75;1027537;28;1205;-75
2021/12/05 02:50:44;;;;;;;;;;;;;;;22.83;27.50;94379.91;1027927;28;1169;-78
2021/12/05 02:51:17;;;;;;;;;;;;;;;22.82;26.63;94376.47;1028495;28;789;-75
2021/12/05 02:51:54;;;;;;;;;;;;;;;22.83;27.02;94374.63;1035774;28;1583;-77
2021/12/05 02:52:29;;;;;;;;;;;;;;;22.82;26.74;94378.34;1031889;28;1046;-75
2021/12/05 02:53:09;;;;;;;;;;;;;;;22.83;27.54;94380.69;1023922;28;1406;-77
2021/12/05 02:53:48;;;;;;;;;;;;;;;22.82;26.95;94380.97;1025832;28;1969;-75
2021/12/05 02:54:19;;;;;;;;;;;;;;;22.83;26.60;94379.91;1030787;28;1194;-77
2021/12/05 02:54:52;;;;;;;;;;;;;;;22.82;27.10;94376.47;1028930;28;1150;-74
2021/12/05 02:55:28;;;;;;;;;;;;;;;22.83;27.50;94380.69;1023926;29;1288;-75
2021/12/05 02:55:59;;;;;;;;;;;;;;;22.83;27.18;94382.53;1023746;29;1533;-75
2021/12/05 02:56:32;;;;;;;;;;;;;;;22.83;27.20;94385.19;1026314;28;1163;-76
2021/12/05 02:57:04;;;;;;;;;;;;;;;22.85;27.21;94377.72;1025064;28;1221;-74
2021/12/05 02:58:21;;;;;;;;;;;;;;;22.86;28.15;94380.03;1023885;29;1245;-77
2021/12/05 02:58:55;;;;;;;;;;;;;;;22.86;27.10;94380.03;1022493;28;1901;-75
2021/12/05 03:00:12;;;;;;;;;;;;;;;22.84;26.96;94379.56;1027158;28;1051;-77
2021/12/05 03:00:46;;;;;;;;;;;;;;;22.85;27.57;94380.34;1027302;28;1237;-75
2021/12/05 03:01:25;;;;;;;;;;;;;;;22.85;27.46;94383.00;1020822;29;1344;-78
2021/12/05 03:02:01;;;;;;;;;;;;;;;22.85;27.35;94383.78;1023307;28;2003;-74
2021/12/05 03:02:39;;;;;;;;;;;;;;;22.86;27.36;94382.66;1022305;29;1622;-75
2021/12/05 03:03:18;;;;;;;;;;;;;;;22.87;28.35;94383.44;1026894;28;1058;-75
2021/12/05 03:03:49;;;;;;;;;;;;;;;22.84;27.00;94378.78;1026039;28;1853;-77
2021/12/05 03:04:22;;;;;;;;;;;;;;;22.86;27.67;94387.16;1022771;29;1359;-76
2021/12/05 03:04:55;;;;;;;;;;;;;;;22.86;28.43;94381.88;1019450;29;1320;-76
2021/12/05 03:05:25;;;;;;;;;;;;;;;22.84;27.42;94378.78;1020839;29;1240;-74
2021/12/05 03:06:01;;;;;;;;;;;;;;;22.86;27.51;94384.53;1024049;28;1461;-74
2021/12/05 03:06:33;;;;;;;;;;;;;;;22.86;27.49;94385.31;1027919;28;1398;-75
2021/12/05 03:07:06;;;;;;;;;;;;;;;22.86;27.97;94381.88;1023019;29;1579;-76
2021/12/05 03:07:42;;;;;;;;;;;;;;;22.86;27.14;94384.53;1021908;29;1707;-76
2021/12/05 03:08:12;;;;;;;;;;;;;;;22.89;28.65;94381.25;1019985;29;1964;-76
2021/12/05 03:08:43;;;;;;;;;;;;;;;22.86;27.96;94390.59;1024356;28;1891;-77
2021/12/05 03:09:13;;;;;;;;;;;;;;;22.87;27.85;94391.38;1028433;28;1205;-77
2021/12/05 03:09:44;;;;;;;;;;;;;;;22.87;27.80;94394.78;1027749;28;1907;-78
2021/12/05 03:10:16;;;;;;;;;;;;;;;22.87;28.09;94391.38;1023917;29;1228;-78
2021/12/05 03:10:47;;;;;;;;;;;;;;;22.88;28.01;94392.91;1023973;29;1157;-76
2021/12/05 03:11:17;;;;;;;;;;;;;;;22.88;27.50;94395.53;1027775;28;1241;-76
2021/12/05 03:11:48;;;;;;;;;;;;;;;22.89;28.14;94397.09;1027836;28;1216;-74
2021/12/05 03:12:19;;;;;;;;;;;;;;;22.89;27.73;94391.81;1024096;29;1023;-77
2021/12/05 03:12:50;;;;;;;;;;;;;;;22.89;27.71;94397.09;1028230;28;1177;-76
2021/12/05 03:13:21;;;;;;;;;;;;;;;22.88;27.71;94398.19;1026017;28;1364;-78
2021/12/05 03:13:51;;;;;;;;;;;;;;;22.85;26.76;94398.84;1023623;28;1919;-76
2021/12/05 03:14:22;;;;;;;;;;;;;;;22.84;27.04;94397.28;1027330;28;1379;-76
2021/12/05 03:14:55;;;;;;;;;;;;;;;22.82;27.30;94394.97;1029403;28;1192;-76
2021/12/05 03:15:25;;;;;;;;;;;;;;;22.83;27.38;94399.16;1030107;28;1329;-76
2021/12/05 03:15:58;;;;;;;;;;;;;;;22.83;27.03;94395.75;1027611;28;1180;-77
2021/12/05 03:16:32;;;;;;;;;;;;;;;22.83;27.96;94391.25;1020668;29;1248;-76
2021/12/05 03:17:02;;;;;;;;;;;;;;;22.83;27.03;94395.75;1028681;28;2237;-75
2021/12/05 03:17:33;;;;;;;;;;;;;;;22.82;27.38;94394.97;1028798;28;1712;-76
2021/12/05 03:18:03;;;;;;;;;;;;;;;22.83;27.07;94401.03;1031103;28;1739;-75
2021/12/05 03:18:33;;;;;;;;;;;;;;;22.81;26.82;94393.44;1023281;28;1833;-79
2021/12/05 03:19:04;;;;;;;;;;;;;;;22.83;27.74;94395.75;1023697;28;1564;-78
2021/12/05 03:19:35;;;;;;;;;;;;;;;22.88;29.21;94398.97;1024570;29;1125;-76
2021/12/05 03:20:05;;;;;;;;;;;;;;;22.89;28.48;94397.88;1024949;28;1215;-75
2021/12/05 03:20:36;;;;;;;;;;;;;;;22.90;27.80;94396.00;1028820;28;1196;-75
2021/12/05 03:21:07;;;;;;;;;;;;;;;22.91;28.43;94392.28;1036120;28;1254;-74
2021/12/05 03:21:38;;;;;;;;;;;;;;;22.93;28.01;94398.00;1037203;28;1164;-75
2021/12/05 03:22:09;;;;;;;;;;;;;;;22.90;27.88;94402.06;1036260;28;1121;-78
2021/12/05 03:22:39;;;;;;;;;;;;;;;22.90;27.35;94396.00;1036841;28;1200;-77
2021/12/05 03:23:10;;;;;;;;;;;;;;;22.86;27.68;94401.16;1036426;28;1161;-75
2021/12/05 03:23:42;;;;;;;;;;;;;;;22.86;27.54;94401.16;1030728;28;1831;-76
2021/12/05 03:24:13;;;;;;;;;;;;;;;22.85;27.68;94399.63;1024579;28;1443;-75
2021/12/05 03:24:44;;;;;;;;;;;;;;;22.85;27.65;94398.84;1020657;29;1317;-76
2021/12/05 03:25:15;;;;;;;;;;;;;;;22.85;27.44;94396.19;1020925;29;1321;-78
2021/12/05 03:25:45;;;;;;;;;;;;;;;22.85;27.57;94404.13;1024790;28;1189;-76
2021/12/05 03:26:18;;;;;;;;;;;;;;;22.85;28.11;94409.41;1029006;28;1002;-77
2021/12/05 03:26:49;;;;;;;;;;;;;;;22.85;27.98;94404.91;1028536;28;1196;-75
2021/12/05 03:27:19;;;;;;;;;;;;;;;22.84;27.07;94403.34;1024173;29;1280;-76
2021/12/05 03:27:49;;;;;;;;;;;;;;;22.85;27.40;94409.41;1024085;28;1491;-77
2021/12/05 03:28:20;;;;;;;;;;;;;;;22.86;27.94;94410.94;1024814;29;1164;-77
2021/12/05 03:28:52;;;;;;;;;;;;;;;22.85;27.78;94404.91;1016357;29;1927;-76
2021/12/05 03:29:23;;;;;;;;;;;;;;;22.86;27.50;94405.66;1023819;29;1973;-75
2021/12/05 03:29:53;;;;;;;;;;;;;;;22.84;27.58;94408.63;1024471;28;1209;-79
2021/12/05 03:30:25;;;;;;;;;;;;;;;22.85;27.42;94409.41;1028849;28;1588;-77
2021/12/05 03:30:55;;;;;;;;;;;;;;;22.86;27.72;94410.94;1032311;28;1282;-76
2021/12/05 03:31:26;;;;;;;;;;;;;;;22.85;27.89;94404.91;1024553;29;1156;-79
2021/12/05 03:31:57;;;;;;;;;;;;;;;22.85;27.53;94401.50;1028324;28;1083;-76
2021/12/05 03:32:27;;;;;;;;;;;;;;;22.85;28.42;94401.50;1028807;28;1125;-77
2021/12/05 03:32:57;;;;;;;;;;;;;;;22.85;27.36;94398.84;1026838;28;1196;-77
2021/12/05 03:33:28;;;;;;;;;;;;;;;22.86;27.74;94400.38;1032426;28;1136;-75
2021/12/05 03:33:58;;;;;;;;;;;;;;;22.86;27.35;94400.38;1031579;28;1945;-77
2021/12/05 03:34:28;;;;;;;;;;;;;;;22.85;27.33;94404.13;1032303;28;1225;-75
2021/12/05 03:34:58;;;;;;;;;;;;;;;22.84;27.55;94402.56;1033243;28;1234;-76
2021/12/05 03:35:29;;;;;;;;;;;;;;;22.84;27.63;94405.22;1028198;28;1669;-75
2021/12/05 03:35:59;;;;;;;;;;;;;;;22.85;28.09;94401.50;1028125;28;1114;-77
2021/12/05 03:36:29;;;;;;;;;;;;;;;22.84;27.40;94397.28;1023967;28;1609;-77
2021/12/05 03:37:00;;;;;;;;;;;;;;;22.83;27.17;94404.47;1024465;28;1063;-74
2021/12/05 03:37:30;;;;;;;;;;;;;;;22.83;27.50;94401.81;1025218;28;1126;-76
2021/12/05 03:38:01;;;;;;;;;;;;;;;22.85;27.96;94404.13;1022300;29;1078;-75
2021/12/05 03:38:31;;;;;;;;;;;;;;;22.84;27.64;94403.34;1021309;28;1105;-74
2021/12/05 03:39:03;;;;;;;;;;;;;;;22.85;27.48;94404.13;1020448;29;1877;-76
2021/12/05 03:39:34;;;;;;;;;;;;;;;22.84;27.89;94398.06;1021961;28;1154;-75
2021/12/05 03:40:05;;;;;;;;;;;;;;;22.85;27.64;94406.78;1022071;29;1249;-75
2021/12/05 03:40:36;;;;;;;;;;;;;;;22.83;26.89;94399.16;1020668;29;1179;-77
2021/12/05 03:41:07;;;;;;;;;;;;;;;22.84;28.51;94400.72;1024833;28;1078;-76
2021/12/05 03:41:37;;;;;;;;;;;;;;;22.85;27.83;94398.84;1020997;29;1129;-75
2021/12/05 03:42:07;;;;;;;;;;;;;;;22.85;27.76;94406.78;1024543;29;1212;-77
2021/12/05 03:42:38;;;;;;;;;;;;;;;22.85;28.09;94399.63;1024404;29;1196;-74
2021/12/05 03:43:09;;;;;;;;;;;;;;;22.85;27.33;94402.28;1024721;28;1272;-74
2021/12/05 03:43:39;;;;;;;;;;;;;;;22.84;27.21;94402.56;1031713;28;1786;-76
2021/12/05 03:44:10;;;;;;;;;;;;;;;22.83;27.62;94401.03;1031510;28;1722;-75
2021/12/05 03:44:41;;;;;;;;;;;;;;;22.83;27.56;94401.03;1032193;28;1174;-77
2021/12/05 03:45:12;;;;;;;;;;;;;;;22.81;27.39;94404.00;1032608;28;1122;-76
2021/12/05 03:45:43;;;;;;;;;;;;;;;22.82;27.33;94400.25;1032584;28;1172;-76
2021/12/05 03:46:13;;;;;;;;;;;;;;;22.83;27.13;94407.09;1032849;28;1213;-75
2021/12/05 03:46:44;;;;;;;;;;;;;;;22.84;27.40;94407.84;1029371;28;1212;-78
2021/12/05 03:47:15;;;;;;;;;;;;;;;22.81;27.57;94406.66;1028561;28;1543;-75
2021/12/05 03:47:45;;;;;;;;;;;;;;;22.83;28.11;94403.69;1027817;28;1613;-74
2021/12/05 03:48:16;;;;;;;;;;;;;;;22.83;27.37;94401.03;1028599;28;1299;-75
2021/12/05 03:48:48;;;;;;;;;;;;;;;22.84;27.62;94408.63;1028939;28;1934;-74
2021/12/05 03:49:18;;;;;;;;;;;;;;;22.85;28.23;94406.78;1030569;28;1202;-75
2021/12/05 03:49:49;;;;;;;;;;;;;;;22.82;27.31;94402.91;1024603;28;1902;-75
2021/12/05 03:50:19;;;;;;;;;;;;;;;22.82;27.43;94402.13;1024817;28;1417;-77
2021/12/05 03:50:49;;;;;;;;;;;;;;;22.83;27.51;94408.97;1027799;28;1204;-74
2021/12/05 03:51:20;;;;;;;;;;;;;;;22.82;27.18;94404.75;1024489;28;1231;-77
2021/12/05 03:51:56;;;;;;;;;;;;;;;22.82;27.67;94402.91;1024085;29;1525;-76
2021/12/05 03:52:26;;;;;;;;;;;;;;;22.80;27.32;94405.06;1020413;29;1316;-75
2021/12/05 03:52:56;;;;;;;;;;;;;;;22.82;27.10;94399.47;1024157;29;1129;-74
2021/12/05 03:53:27;;;;;;;;;;;;;;;22.82;27.70;94402.13;1024121;29;1231;-77
2021/12/05 03:53:57;;;;;;;;;;;;;;;22.82;27.51;94394.97;1019905;29;2104;-78
2021/12/05 03:54:27;;;;;;;;;;;;;;;22.82;27.25;94402.91;1024206;29;1447;-78
2021/12/05 03:54:58;;;;;;;;;;;;;;;22.82;27.41;94400.25;1028542;28;1097;-76
2021/12/05 03:55:28;;;;;;;;;;;;;;;22.82;27.31;94404.75;1027866;28;1381;-75
2021/12/05 03:55:59;;;;;;;;;;;;;;;22.82;26.69;94402.13;1028476;28;1053;-75
2021/12/05 03:56:29;;;;;;;;;;;;;;;22.83;27.74;94406.31;1027942;28;1635;-76
2021/12/05 03:56:59;;;;;;;;;;;;;;;22.82;27.14;94400.25;1031379;28;1678;-77
2021/12/05 03:57:30;;;;;;;;;;;;;;;22.83;27.21;94396.53;1025526;28;1361;-77
2021/12/05 03:58:00;;;;;;;;;;;;;;;22.84;27.30;94402.56;1028576;28;1139;-75
2021/12/05 03:58:32;;;;;;;;;;;;;;;22.83;26.88;94401.81;1028651;28;1124;-75
2021/12/05 03:59:02;;;;;;;;;;;;;;;22.82;27.30;94404.75;1022009;28;1881;-77
2021/12/05 03:59:33;;;;;;;;;;;;;;;22.81;27.07;94403.22;1025117;28;1711;-75
2021/12/05 04:00:07;;;;;;;;;;;;;;;22.82;27.97;94402.13;1026480;28;1217;-77
2021/12/05 04:00:38;;;;;;;;;;;;;;;22.81;27.73;94400.56;1022778;28;1166;-77
2021/12/05 04:01:09;;;;;;;;;;;;;;;22.82;27.64;94402.13;1028281;28;1893;-75
2021/12/05 04:01:39;;;;;;;;;;;;;;;22.82;27.61;94402.13;1024608;29;1311;-76
2021/12/05 04:02:10;;;;;;;;;;;;;;;22.82;27.06;94402.13;1024804;28;1038;-78
2021/12/05 04:02:40;;;;;;;;;;;;;;;22.81;27.31;94398.72;1024420;29;1184;-78
2021/12/05 04:03:11;;;;;;;;;;;;;;;22.81;27.42;94404.00;1020409;28;1313;-76
2021/12/05 04:03:42;;;;;;;;;;;;;;;22.81;26.95;94403.22;1020449;29;1185;-75
2021/12/05 04:04:12;;;;;;;;;;;;;;;22.79;26.90;94405.41;1019156;29;1948;-78
2021/12/05 04:04:42;;;;;;;;;;;;;;;22.79;26.99;94402.75;1020754;29;1576;-75
2021/12/05 04:05:13;;;;;;;;;;;;;;;22.82;27.41;94402.13;1019776;28;1432;-76
2021/12/05 04:05:44;;;;;;;;;;;;;;;22.83;27.43;94401.03;1020391;29;1186;-78
2021/12/05 04:06:15;;;;;;;;;;;;;;;22.81;27.08;94408.50;1024395;29;1371;-77
2021/12/05 04:06:47;;;;;;;;;;;;;;;22.81;27.14;94405.88;1024526;29;1257;-76
2021/12/05 04:07:18;;;;;;;;;;;;;;;22.80;27.15;94402.44;1028266;28;1120;-74
2021/12/05 04:07:48;;;;;;;;;;;;;;;22.80;27.36;94399.00;1027841;28;1145;-78
2021/12/05 04:08:21;;;;;;;;;;;;;;;22.81;27.23;94398.72;1025252;28;1432;-75
2021/12/05 04:08:51;;;;;;;;;;;;;;;22.82;27.32;94399.47;1031287;28;1854;-75
2021/12/05 04:09:22;;;;;;;;;;;;;;;22.83;27.24;94399.16;1032268;28;1906;-77
2021/12/05 04:09:52;;;;;;;;;;;;;;;22.83;27.69;94395.75;1024451;28;1323;-78
2021/12/05 04:10:25;;;;;;;;;;;;;;;22.82;27.79;94397.59;1024645;29;1251;-77
2021/12/05 04:10:57;;;;;;;;;;;;;;;22.82;27.73;94402.13;1021222;29;1134;-74
2021/12/05 04:11:32;;;;;;;;;;;;;;;22.81;27.20;94401.34;1020756;29;982;-77
2021/12/05 04:12:03;;;;;;;;;;;;;;;22.81;26.97;94397.94;1024435;29;1334;-75
2021/12/05 04:12:33;;;;;;;;;;;;;;;22.80;27.55;94391.88;1024380;29;1249;-76
2021/12/05 04:13:04;;;;;;;;;;;;;;;22.82;27.55;94394.19;1028386;28;1152;-75
2021/12/05 04:13:34;;;;;;;;;;;;;;;22.82;27.02;94391.53;1027834;28;1511;-75
2021/12/05 04:14:05;;;;;;;;;;;;;;;22.81;27.31;94393.44;1031480;28;1903;-79
2021/12/05 04:14:37;;;;;;;;;;;;;;;22.80;27.17;94391.09;1032085;28;1279;-76
2021/12/05 04:15:07;;;;;;;;;;;;;;;22.81;27.50;94387.38;1032718;28;1097;-76
2021/12/05 04:15:38;;;;;;;;;;;;;;;22.82;27.77;94391.53;1032282;28;1179;-78
2021/12/05 04:16:09;;;;;;;;;;;;;;;22.80;26.95;94391.09;1032457;28;1189;-76
2021/12/05 04:16:39;;;;;;;;;;;;;;;22.80;27.53;94391.09;1031879;28;2095;-78
2021/12/05 04:17:10;;;;;;;;;;;;;;;22.79;27.09;94385.06;1032227;28;1991;-74
2021/12/05 04:17:40;;;;;;;;;;;;;;;22.80;27.17;94385.81;1031081;28;2068;-77
2021/12/05 04:18:11;;;;;;;;;;;;;;;22.80;27.44;94385.81;1026641;28;1232;-78
2021/12/05 04:18:42;;;;;;;;;;;;;;;22.79;27.16;94384.28;1028116;28;1200;-75
2021/12/05 04:19:12;;;;;;;;;;;;;;;22.79;27.05;94384.28;1027886;28;1927;-74
2021/12/05 04:19:42;;;;;;;;;;;;;;;22.80;27.04;94385.81;1028403;28;1117;-77
2021/12/05 04:20:13;;;;;;;;;;;;;;;22.80;28.20;94386.59;1028275;28;1275;-77
2021/12/05 04:20:43;;;;;;;;;;;;;;;22.81;27.33;94382.09;1028460;28;1124;-78
2021/12/05 04:21:14;;;;;;;;;;;;;;;22.81;27.33;94387.38;1029011;28;1398;-74
2021/12/05 04:21:45;;;;;;;;;;;;;;;22.80;27.28;94386.59;1030959;28;1172;-76
2021/12/05 04:22:15;;;;;;;;;;;;;;;22.81;26.98;94393.44;1032260;28;1202;-75
2021/12/05 04:22:45;;;;;;;;;;;;;;;22.80;26.82;94380.53;1028489;28;1074;-76
2021/12/05 04:23:16;;;;;;;;;;;;;;;22.78;26.91;94378.22;1031697;28;1736;-78
2021/12/05 04:23:46;;;;;;;;;;;;;;;22.79;27.47;94386.91;1026950;28;1483;-77
2021/12/05 04:24:17;;;;;;;;;;;;;;;22.79;27.37;94384.28;1027441;28;2534;-76
2021/12/05 04:24:47;;;;;;;;;;;;;;;22.79;26.60;94387.69;1028493;28;1165;-77
2021/12/05 04:25:18;;;;;;;;;;;;;;;22.77;26.84;94384.59;1028492;28;1208;-77
2021/12/05 04:25:50;;;;;;;;;;;;;;;22.80;27.98;94380.53;1032108;28;1196;-74
2021/12/05 04:26:21;;;;;;;;;;;;;;;22.79;27.08;94379.00;1028762;28;845;-74
2021/12/05 04:26:51;;;;;;;;;;;;;;;22.80;27.23;94380.53;1028322;28;1133;-74
2021/12/05 04:27:21;;;;;;;;;;;;;;;22.79;26.95;94381.63;1028800;28;1034;-75
2021/12/05 04:27:53;;;;;;;;;;;;;;;22.78;26.95;94377.44;1019841;29;1348;-74
2021/12/05 04:28:23;;;;;;;;;;;;;;;22.80;27.16;94383.16;1019917;29;1959;-74
2021/12/05 04:28:54;;;;;;;;;;;;;;;22.79;27.25;94374.50;1023611;28;2074;-74
2021/12/05 04:29:24;;;;;;;;;;;;;;;22.80;27.08;94381.31;1023736;28;1910;-74
2021/12/05 04:29:55;;;;;;;;;;;;;;;22.79;26.81;94379.00;1028957;28;1252;-74
2021/12/05 04:30:25;;;;;;;;;;;;;;;22.79;27.94;94384.28;1028423;28;761;-74
2021/12/05 04:30:55;;;;;;;;;;;;;;;22.78;27.47;94388.00;1028309;28;1109;-73
2021/12/05 04:31:26;;;;;;;;;;;;;;;22.77;26.98;94387.25;1032469;28;1136;-76
2021/12/05 04:31:56;;;;;;;;;;;;;;;22.78;27.37;94382.72;1028272;28;1253;-74
2021/12/05 04:32:27;;;;;;;;;;;;;;;22.77;27.02;94381.19;1024215;29;1360;-77
2021/12/05 04:32:57;;;;;;;;;;;;;;;22.78;27.42;94380.06;1027736;28;1596;-76
2021/12/05 04:33:27;;;;;;;;;;;;;;;22.79;27.19;94384.28;1030867;28;1149;-76
2021/12/05 04:33:58;;;;;;;;;;;;;;;22.78;27.52;94382.72;1032067;28;1990;-73
2021/12/05 04:34:28;;;;;;;;;;;;;;;22.79;27.77;94384.28;1036007;28;1229;-75
2021/12/05 04:34:58;;;;;;;;;;;;;;;22.78;26.68;94382.72;1036512;28;1195;-76
2021/12/05 04:35:29;;;;;;;;;;;;;;;22.80;27.71;94380.53;1036538;28;1179;-74
2021/12/05 04:35:59;;;;;;;;;;;;;;;22.79;27.13;94379.00;1030367;28;1150;-75
2021/12/05 04:36:29;;;;;;;;;;;;;;;22.79;28.17;94384.28;1032201;28;1226;-73
2021/12/05 04:37:00;;;;;;;;;;;;;;;22.79;27.24;94382.41;1032285;28;1074;-74
2021/12/05 04:37:30;;;;;;;;;;;;;;;22.79;27.13;94381.63;1030246;28;1292;-74
2021/12/05 04:38:00;;;;;;;;;;;;;;;22.80;27.36;94380.53;1032271;28;1149;-76
2021/12/05 04:38:31;;;;;;;;;;;;;;;22.76;27.16;94383.03;1027434;28;1188;-74
2021/12/05 04:39:01;;;;;;;;;;;;;;;22.78;27.35;94380.06;1019873;29;1998;-74
2021/12/05 04:39:32;;;;;;;;;;;;;;;22.79;27.47;94384.28;1024242;29;1129;-75
2021/12/05 04:40:04;;;;;;;;;;;;;;;22.80;27.92;94385.81;1020289;29;1217;-74
2021/12/05 04:40:34;;;;;;;;;;;;;;;22.81;27.39;94382.09;1023420;29;1660;-73
2021/12/05 04:41:04;;;;;;;;;;;;;;;22.80;27.12;94385.81;1020324;29;1048;-75
2021/12/05 04:41:35;;;;;;;;;;;;;;;22.80;27.24;94376.03;1024412;28;1160;-77
2021/12/05 04:42:06;;;;;;;;;;;;;;;22.80;27.17;94380.53;1024387;28;1338;-74
2021/12/05 04:42:38;;;;;;;;;;;;;;;22.80;26.64;94378.66;1027841;28;2153;-76
2021/12/05 04:43:08;;;;;;;;;;;;;;;22.80;27.99;94381.31;1029043;28;1184;-75
2021/12/05 04:43:39;;;;;;;;;;;;;;;22.79;27.56;94374.50;1028282;28;1165;-76
2021/12/05 04:44:09;;;;;;;;;;;;;;;22.80;27.43;94378.66;1026265;28;1997;-77
2021/12/05 04:44:40;;;;;;;;;;;;;;;22.79;27.11;94379.78;1028221;28;1206;-76
2021/12/05 04:45:15;;;;;;;;;;;;;;;22.78;26.78;94377.44;1028038;28;1652;-75
2021/12/05 04:45:45;;;;;;;;;;;;;;;22.79;27.39;94374.50;1028800;28;1168;-74
2021/12/05 04:46:20;;;;;;;;;;;;;;;22.79;27.07;94374.50;1030469;28;1225;-75
2021/12/05 04:46:50;;;;;;;;;;;;;;;22.80;26.95;94375.25;1028626;28;1231;-76
2021/12/05 04:47:21;;;;;;;;;;;;;;;22.80;27.44;94372.59;1028207;28;1208;-76
2021/12/05 04:47:51;;;;;;;;;;;;;;;22.82;27.34;94375.69;1030755;28;1376;-78
2021/12/05 04:48:21;;;;;;;;;;;;;;;22.80;27.91;94375.25;1024614;29;1399;-74
2021/12/05 04:48:52;;;;;;;;;;;;;;;22.80;27.19;94376.03;1027672;28;1224;-74
2021/12/05 04:49:23;;;;;;;;;;;;;;;22.80;27.38;94372.59;1027348;28;2379;-76
2021/12/05 04:49:55;;;;;;;;;;;;;;;22.80;27.36;94376.03;1024184;28;1165;-74
2021/12/05 04:50:25;;;;;;;;;;;;;;;22.81;28.07;94371.50;1028372;28;1114;-77
2021/12/05 04:50:58;;;;;;;;;;;;;;;22.80;27.14;94369.97;1018513;29;1218;-78
2021/12/05 04:51:30;;;;;;;;;;;;;;;22.82;27.73;94367.75;1020438;28;1760;-75
2021/12/05 04:52:01;;;;;;;;;;;;;;;22.79;27.36;94366.56;1024134;28;1126;-75
2021/12/05 04:52:31;;;;;;;;;;;;;;;22.81;27.39;94376.81;1025317;28;1165;-76
2021/12/05 04:53:02;;;;;;;;;;;;;;;22.80;27.62;94367.31;1028327;28;1087;-76
2021/12/05 04:53:32;;;;;;;;;;;;;;;22.80;26.94;94365.44;1027235;28;1270;-76
2021/12/05 04:54:03;;;;;;;;;;;;;;;22.78;26.70;94366.84;1023709;28;2017;-74
2021/12/05 04:54:33;;;;;;;;;;;;;;;22.77;26.74;94366.09;1025142;28;1712;-75
2021/12/05 04:55:05;;;;;;;;;;;;;;;22.78;27.02;94364.22;1024609;28;1838;-77
2021/12/05 04:55:35;;;;;;;;;;;;;;;22.78;27.56;94372.16;1028111;28;1058;-73
2021/12/05 04:56:06;;;;;;;;;;;;;;;22.79;27.97;94371.84;1023785;29;1464;-78
2021/12/05 04:56:36;;;;;;;;;;;;;;;22.79;26.73;94368.41;1024194;29;1197;-75
2021/12/05 04:57:07;;;;;;;;;;;;;;;22.78;27.39;94369.50;1016151;29;1286;-75
2021/12/05 04:57:38;;;;;;;;;;;;;;;22.78;27.31;94367.63;1020147;28;1591;-76
2021/12/05 04:58:08;;;;;;;;;;;;;;;22.81;28.19;94366.22;1028794;28;1007;-75
2021/12/05 04:58:38;;;;;;;;;;;;;;;22.78;27.12;94365.00;1028645;28;1523;-75
2021/12/05 04:59:12;;;;;;;;;;;;;;;22.77;27.16;94360.03;1030762;28;2100;-78
2021/12/05 04:59:47;;;;;;;;;;;;;;;22.79;27.96;94358.63;1023863;28;1442;-76
2021/12/05 05:00:38;;;;;;;;;;;;;;;22.77;27.02;94366.09;1021617;29;1094;-77
2021/12/05 05:01:09;;;;;;;;;;;;;;;22.76;26.92;94359.25;1023386;29;1115;-75
2021/12/05 05:01:43;;;;;;;;;;;;;;;22.77;27.37;94362.69;1030833;28;1150;-76